Terminal Aerodrome Forecast
Issued by NWS

Home | Current Version | Previous Version | Text Only | Print | Product List | Glossary On
Versions: 1 2 3 4 5 6 7 8 9 10 11 12 13 14 15 16 17 18 19 20 21
000
FTUS44 KLZK 230500
TAFADF
TAF
KADF 230537Z 2306/2406 12004KT 4SM -RA BR VCTS SCT015 OVC030CB
      WS020/18035KT
     FM231000 13008KT 4SM -RA BR VCTS BKN008CB OVC015 WS020/18035KT
     FM231800 20007KT P6SM VCSH SCT012 BKN025
     FM240000 20008KT P6SM SCT025 BKN040=

USA.gov is the U.S. government's official web portal to all federal, state and local government web resources and services.